logo dgac
Domingo 09 de Diciembre del 2018
Buscar por aerodromo o helipuerto
Ingrese nombre de aeródromo, localidad o designador OACI:

Aeródromo: Futaleufú (PUB) (SCFT)

Ubicación: Futaleufú, X Región, Chile (43º 11' 09'' S, 71º 51' 02'' W) Ver ubicación en el mapa

Pistas

Orientación Dimensión Pendiente Superficie Resistencia APCH THR RWY PAPI
09/27 948 x 18 1,00 ASPH PCN 27 F/A/Y/T No No No No
Horas de operación HJ
Elevación 350 m / 1148 ft
Otra Información Adm : D.G.A.C.
Uso : PUB
Ubicado a 1.2 km E Futaleufú
TEL 652486288 / CEL 988377894

Otra información ver AIP-Chile Volumen I AD 3.9-6.2-F


.
CCCM/FCCV Descargar
andera de Chile
Mapa de  Futaleufú (PUB) (SCFT)

Último METAR

METAR SCFT 092200Z AUTO 26008KT 220V300 CAVOK 18/04 Q1012

Último TAF

No hay tafs registrados para este aeródromo

Últimas fotos cámaras

Imagen aerodromo  Futaleufú (PUB) (SCFT) Este tomada el 09-12-2018 07:47:27 Imagen aerodromo  Futaleufú (PUB) (SCFT) Oeste tomada el 09-12-2018 07:50:07

Último NOTAM

C3639/18 NOTAMN Q)SCTZ/QMWLX/IV/M/A/000/999/4311S07151W005 A)SCFT B)1811211420 C)1902212359 E)N STP RWY 09/27 CTN, REBLANDECIDA

LLegadas a Futaleufú (PUB) (SCFT)

En vuelo

Vuelo Procedencia Hora Despegue Local Hora Arribo Local

Salidas de Futaleufú (PUB) (SCFT)

En vuelo

Vuelo Hacia Hora Despegue Local Hora Arribo Local